createdAt,value
2023-01-17T00:02:24.893Z,22.44
2023-01-17T00:05:09.913Z,22.43
2023-01-17T00:07:55.028Z,22.40
2023-01-17T00:10:25.384Z,22.37
2023-01-17T00:12:52.510Z,22.36
2023-01-17T00:15:20.000Z,22.29
2023-01-17T00:17:46.719Z,22.31
2023-01-17T00:20:32.246Z,22.30
2023-01-17T00:23:17.401Z,22.27
2023-01-17T00:26:02.196Z,22.24
2023-01-17T00:28:28.517Z,22.23
2023-01-17T00:30:54.838Z,22.22
2023-01-17T00:33:21.315Z,22.20
2023-01-17T00:35:47.634Z,22.22
2023-01-17T00:38:14.777Z,22.22
2023-01-17T00:40:41.462Z,22.20
2023-01-17T00:43:26.775Z,22.18
2023-01-17T00:46:12.026Z,22.17
2023-01-17T00:48:57.081Z,22.16
2023-01-17T00:51:42.076Z,22.16
2023-01-17T00:54:27.324Z,22.13
2023-01-17T00:57:12.394Z,22.11
2023-01-17T00:59:57.633Z,22.10
2023-01-17T01:02:42.805Z,22.09
2023-01-17T01:05:28.016Z,22.03
2023-01-17T01:08:12.689Z,22.01
2023-01-17T01:10:57.627Z,21.98
2023-01-17T01:13:43.013Z,21.96
2023-01-17T01:16:27.961Z,21.94
2023-01-17T01:19:12.933Z,21.91
2023-01-17T01:21:57.994Z,21.91
2023-01-17T01:24:42.802Z,21.89
2023-01-17T01:27:27.576Z,21.87
2023-01-17T01:30:12.481Z,21.86
2023-01-17T01:32:57.364Z,21.84
2023-01-17T01:35:23.782Z,21.83
2023-01-17T01:37:50.119Z,21.81
2023-01-17T01:40:16.518Z,21.78
2023-01-17T01:42:50.058Z,21.77
2023-01-17T01:45:17.371Z,21.76
2023-01-17T01:47:43.691Z,21.75
2023-01-17T01:50:10.320Z,21.74
2023-01-17T01:52:36.869Z,21.72
2023-01-17T01:55:05.121Z,21.71
2023-01-17T01:57:32.275Z,21.67
2023-01-17T01:59:59.481Z,21.66
2023-01-17T02:02:26.308Z,21.68
2023-01-17T02:04:52.663Z,21.66
2023-01-17T02:07:20.941Z,21.66
2023-01-17T02:09:47.279Z,21.65
2023-01-17T02:12:13.635Z,21.66
2023-01-17T02:14:39.994Z,21.66
2023-01-17T02:17:10.525Z,21.65
2023-01-17T02:19:45.978Z,21.64
2023-01-17T02:22:12.230Z,21.59
2023-01-17T02:24:57.052Z,21.63
2023-01-17T02:27:26.439Z,21.61
2023-01-17T02:30:11.559Z,21.60
2023-01-17T02:32:46.936Z,21.59
2023-01-17T02:35:21.175Z,21.60
2023-01-17T02:37:52.824Z,21.59
2023-01-17T02:40:20.624Z,21.58
2023-01-17T02:42:48.191Z,21.56
2023-01-17T02:45:15.180Z,21.56
2023-01-17T02:47:41.493Z,21.54
2023-01-17T02:50:08.995Z,21.52
2023-01-17T02:52:35.234Z,21.51
2023-01-17T02:55:07.472Z,21.48
2023-01-17T02:57:33.715Z,21.46
2023-01-17T03:00:02.101Z,21.44
2023-01-17T03:02:31.423Z,21.43
2023-01-17T03:05:03.303Z,21.42
2023-01-17T03:07:29.615Z,21.42
2023-01-17T03:09:59.399Z,21.44
2023-01-17T03:12:29.282Z,21.47
2023-01-17T03:14:55.594Z,21.47
2023-01-17T03:17:22.466Z,21.46
2023-01-17T03:19:49.017Z,21.46
2023-01-17T03:22:15.327Z,21.44
2023-01-17T03:24:41.637Z,21.41
2023-01-17T03:27:07.972Z,21.46
2023-01-17T03:29:34.367Z,21.47
2023-01-17T03:32:00.669Z,21.46
2023-01-17T03:34:26.994Z,21.44
2023-01-17T03:36:53.321Z,21.43
2023-01-17T03:39:19.746Z,21.41
2023-01-17T03:41:46.074Z,21.39
2023-01-17T03:44:12.421Z,21.41
2023-01-17T03:46:38.738Z,21.42
2023-01-17T03:49:05.766Z,21.45
2023-01-17T03:51:32.092Z,21.45
2023-01-17T03:53:58.421Z,21.43
2023-01-17T03:56:24.815Z,21.41
2023-01-17T03:58:51.600Z,21.41
2023-01-17T04:01:19.203Z,21.40
2023-01-17T04:03:45.785Z,21.36
2023-01-17T04:06:12.110Z,21.40
2023-01-17T04:08:38.423Z,21.39
2023-01-17T04:11:04.912Z,21.40
2023-01-17T04:13:31.488Z,21.43
2023-01-17T04:15:57.877Z,21.44
2023-01-17T04:18:24.943Z,21.46
2023-01-17T04:20:51.536Z,21.45
2023-01-17T04:23:17.890Z,21.42
2023-01-17T04:25:44.212Z,21.42
2023-01-17T04:28:10.518Z,21.40
2023-01-17T04:30:37.001Z,21.38
2023-01-17T04:33:03.398Z,21.36
2023-01-17T04:35:30.212Z,21.35
2023-01-17T04:37:56.529Z,21.32
2023-01-17T04:40:22.917Z,21.31
2023-01-17T04:42:49.255Z,21.28
2023-01-17T04:45:15.700Z,21.29
2023-01-17T04:47:42.030Z,21.27
2023-01-17T04:50:08.751Z,21.27
2023-01-17T04:52:35.067Z,21.27
2023-01-17T04:55:01.399Z,21.26
2023-01-17T04:57:27.733Z,21.25
2023-01-17T04:59:54.091Z,21.24
2023-01-17T05:02:20.476Z,21.23
2023-01-17T05:04:46.939Z,21.22
2023-01-17T05:07:13.325Z,21.21
2023-01-17T05:09:39.776Z,21.21
2023-01-17T05:12:06.101Z,21.21
2023-01-17T05:14:34.248Z,21.21
2023-01-17T05:17:00.953Z,21.18
2023-01-17T05:19:27.362Z,21.18
2023-01-17T05:21:53.743Z,21.16
2023-01-17T05:24:20.051Z,21.17
2023-01-17T05:26:54.416Z,21.13
2023-01-17T05:29:20.884Z,21.09
2023-01-17T05:31:47.472Z,21.12
2023-01-17T05:34:13.835Z,21.14
2023-01-17T05:36:40.176Z,21.12
2023-01-17T05:39:06.499Z,21.11
2023-01-17T05:41:32.821Z,21.12
2023-01-17T05:43:59.158Z,21.10
2023-01-17T05:46:25.601Z,21.03
2023-01-17T05:48:51.924Z,21.09
2023-01-17T05:51:18.275Z,21.08
2023-01-17T05:53:44.587Z,21.08
2023-01-17T05:56:10.908Z,21.06
2023-01-17T05:58:37.295Z,21.05
2023-01-17T06:01:03.658Z,21.06
2023-01-17T06:03:30.003Z,21.04
2023-01-17T06:05:56.331Z,21.06
2023-01-17T06:08:23.426Z,21.04
2023-01-17T06:10:49.834Z,21.05
2023-01-17T06:13:20.754Z,21.05
2023-01-17T06:15:47.091Z,21.05
2023-01-17T06:18:14.638Z,21.03
2023-01-17T06:20:40.985Z,21.00
2023-01-17T06:23:08.138Z,20.98
2023-01-17T06:25:38.117Z,20.97
2023-01-17T06:28:04.926Z,20.97
2023-01-17T06:30:31.266Z,20.95
2023-01-17T06:32:57.584Z,20.95
2023-01-17T06:35:23.900Z,20.93
2023-01-17T06:37:50.896Z,20.93
2023-01-17T06:40:17.445Z,20.91
2023-01-17T06:42:43.774Z,20.90
2023-01-17T06:45:10.283Z,20.91
2023-01-17T06:47:40.076Z,20.91
2023-01-17T06:50:07.078Z,20.92
2023-01-17T06:52:33.651Z,20.90
2023-01-17T06:54:59.991Z,20.92
2023-01-17T06:57:26.335Z,20.95
2023-01-17T06:59:52.639Z,20.99
2023-01-17T07:02:18.976Z,20.90
2023-01-17T07:04:45.285Z,20.95
2023-01-17T07:07:11.663Z,20.97
2023-01-17T07:09:38.303Z,20.96
2023-01-17T07:12:04.633Z,20.95
2023-01-17T07:14:30.943Z,20.95
2023-01-17T07:16:57.262Z,20.93
2023-01-17T07:19:23.832Z,20.93
2023-01-17T07:21:50.722Z,20.93
2023-01-17T07:24:17.037Z,20.96
2023-01-17T07:26:43.676Z,20.98
2023-01-17T07:29:09.992Z,20.99
2023-01-17T07:31:38.351Z,21.00
2023-01-17T07:34:05.015Z,20.97
2023-01-17T07:36:31.671Z,20.98
2023-01-17T07:38:57.974Z,20.95
2023-01-17T07:41:24.296Z,20.95
2023-01-17T07:43:50.611Z,20.94
2023-01-17T07:46:17.014Z,20.92
2023-01-17T07:48:43.360Z,20.91
2023-01-17T07:51:09.736Z,20.91
2023-01-17T07:53:36.075Z,20.90
2023-01-17T07:56:02.974Z,20.87
2023-01-17T07:58:29.293Z,20.87
2023-01-17T08:01:00.552Z,20.88
2023-01-17T08:03:32.099Z,21.06
2023-01-17T08:05:58.460Z,21.18
2023-01-17T08:08:24.809Z,21.24
2023-01-17T08:10:51.575Z,21.24
2023-01-17T08:13:17.917Z,21.30
2023-01-17T08:15:44.234Z,21.29
2023-01-17T08:18:10.576Z,21.33
2023-01-17T08:20:36.917Z,21.40
2023-01-17T08:23:03.307Z,21.47
2023-01-17T08:25:29.627Z,21.52
2023-01-17T08:27:56.840Z,21.58
2023-01-17T08:30:23.728Z,21.58
2023-01-17T08:32:50.125Z,21.59
2023-01-17T08:35:16.442Z,21.60
2023-01-17T08:37:42.825Z,21.53
2023-01-17T08:40:10.617Z,21.44
2023-01-17T08:42:39.301Z,21.42
2023-01-17T08:45:06.056Z,21.39
2023-01-17T08:47:32.963Z,21.35
2023-01-17T08:50:00.268Z,21.34
2023-01-17T08:52:27.129Z,21.32
2023-01-17T08:54:56.487Z,21.28
2023-01-17T08:57:22.852Z,21.27
2023-01-17T08:59:49.203Z,21.27
2023-01-17T09:02:15.829Z,21.28
2023-01-17T09:04:48.293Z,21.26
2023-01-17T09:07:14.875Z,21.40
2023-01-17T09:09:41.202Z,21.50
2023-01-17T09:12:07.735Z,21.52
2023-01-17T09:14:34.391Z,21.53
2023-01-17T09:17:00.730Z,21.68
2023-01-17T09:19:27.048Z,21.75
2023-01-17T09:21:53.389Z,21.80
2023-01-17T09:24:19.694Z,21.82
2023-01-17T09:26:46.110Z,21.86
2023-01-17T09:29:13.973Z,21.76
2023-01-17T09:31:41.577Z,21.75
2023-01-17T09:34:08.481Z,21.82
2023-01-17T09:36:34.876Z,21.75
2023-01-17T09:39:01.445Z,21.76
2023-01-17T09:41:31.632Z,21.76
2023-01-17T09:44:01.884Z,21.81
2023-01-17T09:46:32.400Z,21.83
2023-01-17T09:49:08.898Z,21.93
2023-01-17T09:51:35.364Z,21.94
2023-01-17T09:54:02.473Z,21.97
2023-01-17T09:56:30.337Z,21.89
2023-01-17T09:58:56.569Z,21.89
2023-01-17T10:01:25.981Z,21.86
2023-01-17T10:03:57.339Z,21.84
2023-01-17T10:06:26.674Z,21.78
2023-01-17T10:09:09.210Z,21.79
2023-01-17T10:11:38.698Z,21.75
2023-01-17T10:14:10.804Z,21.75
2023-01-17T10:16:37.165Z,21.74
2023-01-17T10:19:07.746Z,21.75
2023-01-17T10:21:39.566Z,21.78
2023-01-17T10:24:06.506Z,21.80
2023-01-17T10:26:33.135Z,21.79
2023-01-17T10:29:00.183Z,21.85
2023-01-17T10:31:27.245Z,21.86
2023-01-17T10:33:54.911Z,21.89
2023-01-17T10:36:24.235Z,21.88
2023-01-17T10:38:54.374Z,21.91
2023-01-17T10:41:30.593Z,21.97
2023-01-17T10:44:15.418Z,21.95
2023-01-17T10:46:43.364Z,21.99
2023-01-17T10:49:14.063Z,22.00
2023-01-17T10:51:43.651Z,21.97
2023-01-17T10:54:26.191Z,21.99
2023-01-17T10:56:52.763Z,21.99
2023-01-17T10:59:28.796Z,22.01
2023-01-17T11:01:55.157Z,21.97
2023-01-17T11:04:22.630Z,21.97
2023-01-17T11:07:08.898Z,21.99
2023-01-17T11:09:38.930Z,21.93
2023-01-17T11:12:05.423Z,21.89
2023-01-17T11:14:35.827Z,21.91
2023-01-17T11:17:02.572Z,21.87
2023-01-17T11:19:30.387Z,21.84
2023-01-17T11:22:01.656Z,21.78
2023-01-17T11:24:30.266Z,21.75
2023-01-17T11:26:57.049Z,21.67
2023-01-17T11:29:31.489Z,21.60
2023-01-17T11:31:57.801Z,21.56
2023-01-17T11:34:24.990Z,21.58
2023-01-17T11:37:30.140Z,21.57
2023-01-17T11:40:06.497Z,21.56
2023-01-17T11:42:33.758Z,21.54
2023-01-17T11:45:18.976Z,21.56
2023-01-17T11:47:45.353Z,21.61
2023-01-17T11:50:24.322Z,21.70
2023-01-17T11:52:50.739Z,21.77
2023-01-17T11:55:17.060Z,21.78
2023-01-17T11:57:43.405Z,21.76
2023-01-17T12:00:24.290Z,21.75
2023-01-17T12:03:09.471Z,21.77
2023-01-17T12:05:40.673Z,21.91
2023-01-17T12:08:13.077Z,21.98
2023-01-17T12:10:45.970Z,22.06
2023-01-17T12:13:49.768Z,22.16
2023-01-17T12:16:34.709Z,22.19
2023-01-17T12:19:21.599Z,22.10
2023-01-17T12:22:17.148Z,22.08
2023-01-17T12:25:02.631Z,22.03
2023-01-17T12:27:31.905Z,22.01
2023-01-17T12:29:58.779Z,22.01
2023-01-17T12:32:28.713Z,22.17
2023-01-17T12:35:00.660Z,22.30
2023-01-17T12:37:29.480Z,22.41
2023-01-17T12:40:00.360Z,22.55
2023-01-17T12:42:28.168Z,22.53
2023-01-17T12:44:57.942Z,22.40
2023-01-17T12:47:24.485Z,22.43
2023-01-17T12:49:56.694Z,22.50
2023-01-17T12:52:26.183Z,22.55
2023-01-17T12:54:54.790Z,22.60
2023-01-17T12:57:22.368Z,22.61
2023-01-17T13:00:04.265Z,22.51
2023-01-17T13:02:39.882Z,22.49
2023-01-17T13:05:09.235Z,22.51
2023-01-17T13:07:49.551Z,22.47
2023-01-17T13:10:20.928Z,22.39
2023-01-17T13:12:47.260Z,22.34
2023-01-17T13:15:14.246Z,22.30
2023-01-17T13:17:46.705Z,22.23
2023-01-17T13:20:31.793Z,22.24
2023-01-17T13:23:00.857Z,22.23
2023-01-17T13:25:31.794Z,22.22
2023-01-17T13:28:10.643Z,22.18
2023-01-17T13:30:55.969Z,22.19
2023-01-17T13:33:34.301Z,22.19
2023-01-17T13:36:19.324Z,22.14
2023-01-17T13:39:00.969Z,22.11
2023-01-17T13:41:47.319Z,22.08
2023-01-17T13:44:23.029Z,22.05
2023-01-17T13:46:56.327Z,22.02
2023-01-17T13:49:34.724Z,21.97
2023-01-17T13:52:12.212Z,21.95
2023-01-17T13:54:45.693Z,21.93
2023-01-17T13:57:29.746Z,21.90
2023-01-17T13:59:56.757Z,21.97
2023-01-17T14:02:32.266Z,22.02
2023-01-17T14:05:23.871Z,22.07
2023-01-17T14:07:52.954Z,22.08
2023-01-17T14:10:22.278Z,22.07
2023-01-17T14:12:48.925Z,22.09
2023-01-17T14:15:19.863Z,22.08
2023-01-17T14:17:48.132Z,22.06
2023-01-17T14:20:16.048Z,22.11
2023-01-17T14:22:47.416Z,22.09
2023-01-17T14:25:17.589Z,22.16
2023-01-17T14:27:51.205Z,22.19
2023-01-17T14:30:17.750Z,22.17
2023-01-17T14:33:01.427Z,22.15
2023-01-17T14:35:28.201Z,22.17
2023-01-17T14:37:54.524Z,22.15
2023-01-17T14:40:26.366Z,22.14
2023-01-17T14:42:59.849Z,22.13
2023-01-17T14:45:27.526Z,22.10
2023-01-17T14:47:53.921Z,22.08
2023-01-17T14:50:24.304Z,22.08
2023-01-17T14:53:27.885Z,22.04
2023-01-17T14:55:56.415Z,22.01
2023-01-17T14:58:32.785Z,21.94
2023-01-17T15:00:59.963Z,21.91
2023-01-17T15:03:26.768Z,21.97
2023-01-17T15:05:53.414Z,22.02
2023-01-17T15:08:20.472Z,22.03
2023-01-17T15:10:48.484Z,22.03
2023-01-17T15:13:14.874Z,22.04
2023-01-17T15:15:42.163Z,22.01
2023-01-17T15:18:08.404Z,21.99
2023-01-17T15:20:34.736Z,21.95
2023-01-17T15:23:01.055Z,21.93
2023-01-17T15:25:27.382Z,21.92
2023-01-17T15:27:53.708Z,21.90
2023-01-17T15:30:22.221Z,21.89
2023-01-17T15:32:49.216Z,21.94
2023-01-17T15:35:18.548Z,21.98
2023-01-17T15:37:44.869Z,21.98
2023-01-17T15:40:16.768Z,21.98
2023-01-17T15:42:43.137Z,21.95
2023-01-17T15:45:15.464Z,21.98
2023-01-17T15:47:41.792Z,21.99
2023-01-17T15:50:20.399Z,21.93
2023-01-17T15:52:49.077Z,21.94
2023-01-17T15:55:22.406Z,21.95
2023-01-17T15:57:48.800Z,21.92
2023-01-17T16:00:21.452Z,21.91
2023-01-17T16:02:58.681Z,21.91
2023-01-17T16:05:25.695Z,21.88
2023-01-17T16:07:55.461Z,21.85
2023-01-17T16:10:22.585Z,21.88
2023-01-17T16:12:50.009Z,21.84
2023-01-17T16:15:18.283Z,21.77
2023-01-17T16:17:45.779Z,21.87
2023-01-17T16:20:15.756Z,21.89
2023-01-17T16:22:43.632Z,21.92
2023-01-17T16:25:19.515Z,22.00
2023-01-17T16:27:45.909Z,22.00
2023-01-17T16:30:15.236Z,21.99
2023-01-17T16:32:42.398Z,21.99
2023-01-17T16:35:29.276Z,21.95
2023-01-17T16:37:56.207Z,21.98
2023-01-17T16:40:23.797Z,21.98
2023-01-17T16:42:50.141Z,21.97
2023-01-17T16:45:16.510Z,21.97
2023-01-17T16:47:43.079Z,22.07
2023-01-17T16:50:10.063Z,22.07
2023-01-17T16:52:36.369Z,22.08
2023-01-17T16:55:03.198Z,22.06
2023-01-17T16:57:29.520Z,22.05
2023-01-17T16:59:55.834Z,22.10
2023-01-17T17:02:22.953Z,22.05
2023-01-17T17:04:49.393Z,22.05
2023-01-17T17:07:15.700Z,22.03
2023-01-17T17:09:42.053Z,22.02
2023-01-17T17:12:08.418Z,22.01
2023-01-17T17:14:34.740Z,21.98
2023-01-17T17:17:01.107Z,21.93
2023-01-17T17:19:30.153Z,21.90
2023-01-17T17:21:59.699Z,21.87
2023-01-17T17:24:26.043Z,21.89
2023-01-17T17:26:52.432Z,21.91
2023-01-17T17:29:18.827Z,21.99
2023-01-17T17:31:45.163Z,22.06
2023-01-17T17:34:12.401Z,22.14
2023-01-17T17:36:38.819Z,22.20
2023-01-17T17:39:06.447Z,22.23
2023-01-17T17:41:33.357Z,22.22
2023-01-17T17:44:00.216Z,22.23
2023-01-17T17:46:27.266Z,22.22
2023-01-17T17:48:53.659Z,22.22
2023-01-17T17:51:30.087Z,22.22
2023-01-17T17:53:57.917Z,22.20
2023-01-17T17:56:24.236Z,22.10
2023-01-17T17:58:50.567Z,22.15
2023-01-17T18:01:16.989Z,22.26
2023-01-17T18:03:43.340Z,22.43
2023-01-17T18:06:10.235Z,22.64
2023-01-17T18:08:37.197Z,22.80
2023-01-17T18:11:04.637Z,23.02
2023-01-17T18:13:31.320Z,23.15
2023-01-17T18:16:01.642Z,23.26
2023-01-17T18:18:28.055Z,23.31
2023-01-17T18:20:54.398Z,23.33
2023-01-17T18:23:20.835Z,23.48
2023-01-17T18:25:47.164Z,23.52
2023-01-17T18:28:13.553Z,23.42
2023-01-17T18:30:39.889Z,23.59
2023-01-17T18:33:06.221Z,23.64
2023-01-17T18:35:32.545Z,23.64
2023-01-17T18:37:58.924Z,23.67
2023-01-17T18:40:25.256Z,23.69
2023-01-17T18:42:51.632Z,23.70
2023-01-17T18:45:18.057Z,23.68
2023-01-17T18:47:44.368Z,23.65
2023-01-17T18:50:10.706Z,23.70
2023-01-17T18:52:38.594Z,23.69
2023-01-17T18:55:05.045Z,24.00
2023-01-17T18:57:31.521Z,24.15
2023-01-17T18:59:57.860Z,24.23
2023-01-17T19:02:24.188Z,24.18
2023-01-17T19:04:50.513Z,23.86
2023-01-17T19:07:16.847Z,23.80
2023-01-17T19:09:44.101Z,23.68
2023-01-17T19:12:10.419Z,23.50
2023-01-17T19:14:36.735Z,23.73
2023-01-17T19:17:03.104Z,23.80
2023-01-17T19:19:29.431Z,23.84
2023-01-17T19:21:55.738Z,23.87
2023-01-17T19:24:22.133Z,23.75
2023-01-17T19:26:51.097Z,23.78
2023-01-17T19:29:17.408Z,23.80
2023-01-17T19:31:43.952Z,23.72
2023-01-17T19:34:10.481Z,23.69
2023-01-17T19:36:37.362Z,23.71
2023-01-17T19:39:05.959Z,23.68
2023-01-17T19:41:36.342Z,23.70
2023-01-17T19:44:04.403Z,23.69
2023-01-17T19:46:31.107Z,23.65
2023-01-17T19:48:57.522Z,23.67
2023-01-17T19:51:24.232Z,23.73
2023-01-17T19:53:50.578Z,23.70
2023-01-17T19:56:18.135Z,23.68
2023-01-17T19:58:44.842Z,23.66
2023-01-17T20:01:14.933Z,23.68
2023-01-17T20:03:42.482Z,23.62
2023-01-17T20:06:08.832Z,23.61
2023-01-17T20:08:35.191Z,23.58
2023-01-17T20:11:02.331Z,23.61
2023-01-17T20:13:28.679Z,23.68
2023-01-17T20:15:55.018Z,23.59
2023-01-17T20:18:22.447Z,23.61
2023-01-17T20:20:57.138Z,23.65
2023-01-17T20:23:23.901Z,23.61
2023-01-17T20:25:58.886Z,23.60
2023-01-17T20:28:26.668Z,23.58
2023-01-17T20:30:53.674Z,23.56
2023-01-17T20:33:20.400Z,23.54
2023-01-17T20:35:46.752Z,23.54
2023-01-17T20:38:13.071Z,23.52
2023-01-17T20:40:39.395Z,23.51
2023-01-17T20:43:06.146Z,23.47
2023-01-17T20:45:32.585Z,23.44
2023-01-17T20:47:59.221Z,23.47
2023-01-17T20:50:25.715Z,23.44
2023-01-17T20:52:52.168Z,23.47
2023-01-17T20:55:18.511Z,23.57
2023-01-17T20:57:45.070Z,23.85
2023-01-17T21:00:12.203Z,23.99
2023-01-17T21:02:38.601Z,24.11
2023-01-17T21:05:05.257Z,24.27
2023-01-17T21:07:31.573Z,24.43
2023-01-17T21:09:57.888Z,24.45
2023-01-17T21:12:24.227Z,24.48
2023-01-17T21:14:51.055Z,24.54
2023-01-17T21:17:17.428Z,24.55
2023-01-17T21:19:43.990Z,24.57
2023-01-17T21:22:11.143Z,24.59
2023-01-17T21:24:37.458Z,24.62
2023-01-17T21:27:03.779Z,24.63
2023-01-17T21:29:31.493Z,24.61
2023-01-17T21:31:57.869Z,24.71
2023-01-17T21:34:25.510Z,24.66
2023-01-17T21:36:51.969Z,24.76
2023-01-17T21:39:18.374Z,24.81
2023-01-17T21:41:45.708Z,24.87
2023-01-17T21:44:12.837Z,24.83
2023-01-17T21:46:39.473Z,24.82
2023-01-17T21:49:06.034Z,24.81
2023-01-17T21:51:51.104Z,24.81
2023-01-17T21:54:17.419Z,24.80
2023-01-17T21:57:02.492Z,24.80
2023-01-17T21:59:30.606Z,24.80
2023-01-17T22:01:58.146Z,24.79
2023-01-17T22:04:25.674Z,24.78
2023-01-17T22:06:52.022Z,24.82
2023-01-17T22:09:18.355Z,24.51
2023-01-17T22:11:44.712Z,24.55
2023-01-17T22:14:11.143Z,24.53
2023-01-17T22:16:37.496Z,24.15
2023-01-17T22:19:04.302Z,24.14
2023-01-17T22:21:30.653Z,24.53
2023-01-17T22:23:57.646Z,24.65
2023-01-17T22:26:24.636Z,24.66
2023-01-17T22:28:50.946Z,24.67
2023-01-17T22:31:24.270Z,24.64
2023-01-17T22:33:57.316Z,24.64
2023-01-17T22:36:23.664Z,24.64
2023-01-17T22:38:50.061Z,24.66
2023-01-17T22:41:17.481Z,24.66
2023-01-17T22:43:44.587Z,24.64
2023-01-17T22:46:11.728Z,24.63
2023-01-17T22:48:38.150Z,24.62
2023-01-17T22:51:04.785Z,24.54
2023-01-17T22:53:31.098Z,24.39
2023-01-17T22:56:01.370Z,24.23
2023-01-17T22:58:28.704Z,23.91
2023-01-17T23:01:07.936Z,23.73
2023-01-17T23:03:34.385Z,23.69
2023-01-17T23:06:30.376Z,23.66
2023-01-17T23:08:57.678Z,23.64
2023-01-17T23:11:40.449Z,23.59
2023-01-17T23:14:07.437Z,23.53
2023-01-17T23:16:52.728Z,23.49
2023-01-17T23:19:24.889Z,23.43
2023-01-17T23:22:10.483Z,23.39
2023-01-17T23:24:39.435Z,23.36
2023-01-17T23:27:24.269Z,23.32
2023-01-17T23:32:16.792Z,23.25
2023-01-17T23:34:43.328Z,23.21
2023-01-17T23:37:09.660Z,23.17
2023-01-17T23:39:35.980Z,23.16
2023-01-17T23:42:21.199Z,23.13
2023-01-17T23:44:47.550Z,23.11
2023-01-17T23:47:13.879Z,23.08
2023-01-17T23:49:40.189Z,23.07
2023-01-17T23:52:06.609Z,23.04
2023-01-17T23:54:34.993Z,23.01
2023-01-17T23:57:01.829Z,22.98
2023-01-17T23:59:28.741Z,22.91
